sensor_id;sensor_type;location;lat;lon;timestamp;P1;durP1;ratioP1;P2;durP2;ratioP2
45940;SDS011;31858;46.008;8.978;2023-06-10T00:08:24;7.00;;;6.13;;
45940;SDS011;31858;46.008;8.978;2023-06-10T00:18:27;8.18;;;7.32;;
45940;SDS011;31858;46.008;8.978;2023-06-10T00:28:31;8.18;;;6.65;;
45940;SDS011;31858;46.008;8.978;2023-06-10T00:38:34;7.28;;;6.57;;
45940;SDS011;31858;46.008;8.978;2023-06-10T00:48:36;7.90;;;6.00;;
45940;SDS011;31858;46.008;8.978;2023-06-10T00:58:39;6.60;;;5.90;;
45940;SDS011;31858;46.008;8.978;2023-06-10T01:08:43;14.02;;;5.80;;
45940;SDS011;31858;46.008;8.978;2023-06-10T01:18:52;9.35;;;5.88;;
45940;SDS011;31858;46.008;8.978;2023-06-10T01:28:57;7.10;;;6.40;;
45940;SDS011;31858;46.008;8.978;2023-06-10T01:39:01;9.55;;;7.45;;
45940;SDS011;31858;46.008;8.978;2023-06-10T01:49:06;9.85;;;7.47;;
45940;SDS011;31858;46.008;8.978;2023-06-10T01:59:08;6.60;;;5.68;;
45940;SDS011;31858;46.008;8.978;2023-06-10T02:09:11;9.43;;;7.20;;
45940;SDS011;31858;46.008;8.978;2023-06-10T02:19:12;9.38;;;8.13;;
45940;SDS011;31858;46.008;8.978;2023-06-10T02:29:15;13.93;;;7.70;;
45940;SDS011;31858;46.008;8.978;2023-06-10T02:39:17;15.05;;;12.90;;
45940;SDS011;31858;46.008;8.978;2023-06-10T02:49:20;16.48;;;14.73;;
45940;SDS011;31858;46.008;8.978;2023-06-10T02:59:21;18.33;;;16.40;;
45940;SDS011;31858;46.008;8.978;2023-06-10T03:09:24;25.05;;;21.52;;
45940;SDS011;31858;46.008;8.978;2023-06-10T03:19:26;28.55;;;21.60;;
45940;SDS011;31858;46.008;8.978;2023-06-10T03:29:29;25.77;;;20.98;;
45940;SDS011;31858;46.008;8.978;2023-06-10T03:39:30;23.58;;;20.02;;
45940;SDS011;31858;46.008;8.978;2023-06-10T03:49:33;27.02;;;21.30;;
45940;SDS011;31858;46.008;8.978;2023-06-10T03:59:36;21.20;;;18.70;;
45940;SDS011;31858;46.008;8.978;2023-06-10T04:09:39;20.95;;;18.60;;
45940;SDS011;31858;46.008;8.978;2023-06-10T04:19:41;11.75;;;10.10;;
45940;SDS011;31858;46.008;8.978;2023-06-10T04:29:43;25.45;;;20.17;;
45940;SDS011;31858;46.008;8.978;2023-06-10T04:39:45;12.70;;;11.00;;
45940;SDS011;31858;46.008;8.978;2023-06-10T04:49:48;8.95;;;8.15;;
45940;SDS011;31858;46.008;8.978;2023-06-10T04:59:50;8.10;;;7.38;;
45940;SDS011;31858;46.008;8.978;2023-06-10T05:09:53;10.20;;;7.05;;
45940;SDS011;31858;46.008;8.978;2023-06-10T05:19:54;9.90;;;8.90;;
45940;SDS011;31858;46.008;8.978;2023-06-10T05:29:57;7.80;;;7.03;;
45940;SDS011;31858;46.008;8.978;2023-06-10T05:39:59;9.38;;;7.90;;
45940;SDS011;31858;46.008;8.978;2023-06-10T05:50:02;7.45;;;6.72;;
45940;SDS011;31858;46.008;8.978;2023-06-10T06:00:07;8.43;;;6.50;;
45940;SDS011;31858;46.008;8.978;2023-06-10T06:10:11;7.30;;;6.60;;
45940;SDS011;31858;46.008;8.978;2023-06-10T06:20:12;7.85;;;7.10;;
45940;SDS011;31858;46.008;8.978;2023-06-10T06:30:15;9.40;;;8.50;;
45940;SDS011;31858;46.008;8.978;2023-06-10T06:40:17;8.65;;;7.72;;
45940;SDS011;31858;46.008;8.978;2023-06-10T06:50:20;8.05;;;7.35;;
45940;SDS011;31858;46.008;8.978;2023-06-10T07:00:22;15.55;;;12.95;;
45940;SDS011;31858;46.008;8.978;2023-06-10T07:10:25;13.15;;;11.85;;
45940;SDS011;31858;46.008;8.978;2023-06-10T07:20:27;13.60;;;10.73;;
45940;SDS011;31858;46.008;8.978;2023-06-10T07:30:30;9.90;;;8.88;;
45940;SDS011;31858;46.008;8.978;2023-06-10T07:40:31;17.05;;;12.93;;
45940;SDS011;31858;46.008;8.978;2023-06-10T07:50:34;14.05;;;12.75;;
45940;SDS011;31858;46.008;8.978;2023-06-10T08:00:36;15.25;;;10.60;;
45940;SDS011;31858;46.008;8.978;2023-06-10T08:10:39;12.43;;;10.85;;
45940;SDS011;31858;46.008;8.978;2023-06-10T08:20:41;11.18;;;10.02;;
45940;SDS011;31858;46.008;8.978;2023-06-10T08:30:44;8.90;;;8.00;;
45940;SDS011;31858;46.008;8.978;2023-06-10T08:40:46;9.35;;;8.45;;
45940;SDS011;31858;46.008;8.978;2023-06-10T08:50:49;10.18;;;9.07;;
45940;SDS011;31858;46.008;8.978;2023-06-10T09:00:53;13.30;;;9.30;;
45940;SDS011;31858;46.008;8.978;2023-06-10T09:10:56;10.73;;;9.73;;
45940;SDS011;31858;46.008;8.978;2023-06-10T09:20:59;10.95;;;9.95;;
45940;SDS011;31858;46.008;8.978;2023-06-10T09:31:03;10.18;;;9.18;;
45940;SDS011;31858;46.008;8.978;2023-06-10T09:41:07;9.55;;;8.63;;
45940;SDS011;31858;46.008;8.978;2023-06-10T09:51:10;10.52;;;9.52;;
45940;SDS011;31858;46.008;8.978;2023-06-10T10:01:12;13.13;;;11.80;;
45940;SDS011;31858;46.008;8.978;2023-06-10T10:11:18;17.52;;;14.02;;
45940;SDS011;31858;46.008;8.978;2023-06-10T10:21:22;14.77;;;13.25;;
45940;SDS011;31858;46.008;8.978;2023-06-10T10:31:28;16.15;;;14.52;;
45940;SDS011;31858;46.008;8.978;2023-06-10T10:41:34;11.80;;;10.70;;
45940;SDS011;31858;46.008;8.978;2023-06-10T10:51:39;14.07;;;11.98;;
45940;SDS011;31858;46.008;8.978;2023-06-10T11:01:55;14.68;;;12.20;;
45940;SDS011;31858;46.008;8.978;2023-06-10T11:11:59;14.38;;;12.27;;
45940;SDS011;31858;46.008;8.978;2023-06-10T11:22:01;12.32;;;11.23;;
45940;SDS011;31858;46.008;8.978;2023-06-10T11:32:05;10.25;;;9.00;;
45940;SDS011;31858;46.008;8.978;2023-06-10T11:42:08;13.55;;;9.85;;
45940;SDS011;31858;46.008;8.978;2023-06-10T11:52:11;11.13;;;10.02;;
45940;SDS011;31858;46.008;8.978;2023-06-10T12:02:14;11.82;;;10.10;;
45940;SDS011;31858;46.008;8.978;2023-06-10T12:12:18;9.13;;;8.20;;
45940;SDS011;31858;46.008;8.978;2023-06-10T12:22:20;8.98;;;7.10;;
45940;SDS011;31858;46.008;8.978;2023-06-10T12:32:34;11.30;;;9.00;;
45940;SDS011;31858;46.008;8.978;2023-06-10T12:42:36;11.93;;;10.55;;
45940;SDS011;31858;46.008;8.978;2023-06-10T12:52:40;11.00;;;10.00;;
45940;SDS011;31858;46.008;8.978;2023-06-10T13:02:42;15.30;;;11.00;;
45940;SDS011;31858;46.008;8.978;2023-06-10T13:12:45;11.15;;;9.80;;
45940;SDS011;31858;46.008;8.978;2023-06-10T13:22:47;11.25;;;9.27;;
45940;SDS011;31858;46.008;8.978;2023-06-10T13:32:50;10.57;;;9.40;;
45940;SDS011;31858;46.008;8.978;2023-06-10T13:42:52;9.93;;;8.68;;
45940;SDS011;31858;46.008;8.978;2023-06-10T13:52:55;10.27;;;9.05;;
45940;SDS011;31858;46.008;8.978;2023-06-10T14:02:57;10.48;;;9.25;;
45940;SDS011;31858;46.008;8.978;2023-06-10T14:13:00;11.35;;;9.15;;
45940;SDS011;31858;46.008;8.978;2023-06-10T14:23:02;10.23;;;9.13;;
45940;SDS011;31858;46.008;8.978;2023-06-10T14:33:05;9.75;;;8.77;;
45940;SDS011;31858;46.008;8.978;2023-06-10T14:43:06;10.63;;;8.55;;
45940;SDS011;31858;46.008;8.978;2023-06-10T14:53:11;8.55;;;7.65;;
45940;SDS011;31858;46.008;8.978;2023-06-10T15:03:12;9.20;;;7.70;;
45940;SDS011;31858;46.008;8.978;2023-06-10T15:13:16;7.88;;;6.40;;
45940;SDS011;31858;46.008;8.978;2023-06-10T15:23:17;9.60;;;6.88;;
45940;SDS011;31858;46.008;8.978;2023-06-10T15:33:21;8.52;;;7.63;;
45940;SDS011;31858;46.008;8.978;2023-06-10T15:43:22;8.77;;;7.25;;
45940;SDS011;31858;46.008;8.978;2023-06-10T15:53:25;8.50;;;7.78;;
45940;SDS011;31858;46.008;8.978;2023-06-10T16:03:27;16.70;;;10.68;;
45940;SDS011;31858;46.008;8.978;2023-06-10T16:13:30;13.18;;;10.65;;
45940;SDS011;31858;46.008;8.978;2023-06-10T16:23:31;12.63;;;10.77;;
45940;SDS011;31858;46.008;8.978;2023-06-10T16:33:34;12.27;;;10.98;;
45940;SDS011;31858;46.008;8.978;2023-06-10T16:43:36;16.30;;;13.63;;
45940;SDS011;31858;46.008;8.978;2023-06-10T16:53:39;15.45;;;12.18;;
45940;SDS011;31858;46.008;8.978;2023-06-10T17:03:40;12.10;;;10.52;;
45940;SDS011;31858;46.008;8.978;2023-06-10T17:13:43;14.02;;;11.65;;
45940;SDS011;31858;46.008;8.978;2023-06-10T17:23:45;16.63;;;12.80;;
45940;SDS011;31858;46.008;8.978;2023-06-10T17:33:48;11.95;;;10.85;;
45940;SDS011;31858;46.008;8.978;2023-06-10T17:43:50;18.33;;;13.13;;
45940;SDS011;31858;46.008;8.978;2023-06-10T17:53:53;12.82;;;11.57;;
45940;SDS011;31858;46.008;8.978;2023-06-10T18:03:54;13.43;;;9.43;;
45940;SDS011;31858;46.008;8.978;2023-06-10T18:13:57;10.73;;;9.50;;
45940;SDS011;31858;46.008;8.978;2023-06-10T18:23:59;12.57;;;11.00;;
45940;SDS011;31858;46.008;8.978;2023-06-10T18:34:02;12.60;;;10.05;;
45940;SDS011;31858;46.008;8.978;2023-06-10T18:44:04;10.27;;;9.27;;
45940;SDS011;31858;46.008;8.978;2023-06-10T18:54:07;11.38;;;8.85;;
45940;SDS011;31858;46.008;8.978;2023-06-10T19:04:08;10.27;;;9.18;;
45940;SDS011;31858;46.008;8.978;2023-06-10T19:14:12;9.13;;;8.02;;
45940;SDS011;31858;46.008;8.978;2023-06-10T19:24:13;9.50;;;8.60;;
45940;SDS011;31858;46.008;8.978;2023-06-10T19:34:16;10.57;;;9.27;;
45940;SDS011;31858;46.008;8.978;2023-06-10T19:44:18;9.82;;;8.45;;
45940;SDS011;31858;46.008;8.978;2023-06-10T19:54:21;11.65;;;8.10;;
45940;SDS011;31858;46.008;8.978;2023-06-10T20:04:22;9.38;;;8.48;;
45940;SDS011;31858;46.008;8.978;2023-06-10T20:14:25;8.95;;;8.10;;
45940;SDS011;31858;46.008;8.978;2023-06-10T20:24:27;9.82;;;6.28;;
45940;SDS011;31858;46.008;8.978;2023-06-10T20:34:30;6.05;;;5.45;;
45940;SDS011;31858;46.008;8.978;2023-06-10T20:44:31;6.18;;;5.57;;
45940;SDS011;31858;46.008;8.978;2023-06-10T20:54:34;6.47;;;5.32;;
45940;SDS011;31858;46.008;8.978;2023-06-10T21:04:36;6.35;;;5.40;;
45940;SDS011;31858;46.008;8.978;2023-06-10T21:14:39;7.82;;;6.15;;
45940;SDS011;31858;46.008;8.978;2023-06-10T21:24:40;8.60;;;6.20;;
45940;SDS011;31858;46.008;8.978;2023-06-10T21:34:43;8.43;;;5.88;;
45940;SDS011;31858;46.008;8.978;2023-06-10T21:44:45;6.28;;;5.32;;
45940;SDS011;31858;46.008;8.978;2023-06-10T21:54:48;6.93;;;6.00;;
45940;SDS011;31858;46.008;8.978;2023-06-10T22:04:49;7.78;;;5.68;;
45940;SDS011;31858;46.008;8.978;2023-06-10T22:14:54;8.38;;;5.85;;
45940;SDS011;31858;46.008;8.978;2023-06-10T22:24:55;9.45;;;6.30;;
45940;SDS011;31858;46.008;8.978;2023-06-10T22:34:58;8.05;;;6.18;;
45940;SDS011;31858;46.008;8.978;2023-06-10T22:45:00;7.78;;;6.97;;
45940;SDS011;31858;46.008;8.978;2023-06-10T22:55:03;8.13;;;6.65;;
45940;SDS011;31858;46.008;8.978;2023-06-10T23:05:06;9.18;;;6.75;;
45940;SDS011;31858;46.008;8.978;2023-06-10T23:15:10;7.60;;;6.82;;
45940;SDS011;31858;46.008;8.978;2023-06-10T23:25:12;8.50;;;6.22;;
45940;SDS011;31858;46.008;8.978;2023-06-10T23:35:15;9.18;;;6.80;;
45940;SDS011;31858;46.008;8.978;2023-06-10T23:45:19;9.18;;;6.43;;
45940;SDS011;31858;46.008;8.978;2023-06-10T23:55:22;7.28;;;6.13;;
